createdAt,value
2017-07-07T00:01:29.466Z,0
2017-07-07T00:02:29.147Z,0
2017-07-07T00:03:29.506Z,0
2017-07-07T00:04:29.220Z,0
2017-07-07T00:05:29.568Z,0
2017-07-07T00:06:29.593Z,0
2017-07-07T00:07:29.606Z,0
2017-07-07T00:08:28.982Z,0
2017-07-07T00:09:29.012Z,0
2017-07-07T00:10:29.370Z,0
2017-07-07T00:12:29.750Z,0
2017-07-07T00:13:29.443Z,0
2017-07-07T00:14:29.787Z,0
2017-07-07T00:15:29.523Z,0
2017-07-07T00:16:29.190Z,0
2017-07-07T00:17:29.529Z,0
2017-07-07T00:18:28.931Z,0
2017-07-07T00:19:29.915Z,0
2017-07-07T00:20:29.929Z,0
2017-07-07T00:21:29.622Z,0
2017-07-07T00:22:28.707Z,0
2017-07-07T00:23:29.647Z,0
2017-07-07T00:24:30.031Z,0
2017-07-07T00:25:29.717Z,0
2017-07-07T00:26:44.037Z,0
2017-07-07T00:27:30.089Z,0
2017-07-07T00:28:30.145Z,0
2017-07-07T00:30:30.162Z,0
2017-07-07T00:31:29.870Z,0
2017-07-07T00:32:29.573Z,0
2017-07-07T00:33:30.259Z,0
2017-07-07T00:34:29.622Z,0
2017-07-07T00:35:29.995Z,0
2017-07-07T00:36:29.366Z,0
2017-07-07T00:37:30.348Z,0
2017-07-07T00:38:30.356Z,0
2017-07-07T00:39:30.386Z,0
2017-07-07T00:40:30.073Z,0
2017-07-07T00:41:30.131Z,0
2017-07-07T00:42:44.753Z,0
2017-07-07T00:43:30.530Z,0
2017-07-07T00:44:30.513Z,0
2017-07-07T00:45:30.520Z,0
2017-07-07T00:46:30.256Z,0
2017-07-07T00:47:30.268Z,0
2017-07-07T00:48:30.608Z,0
2017-07-07T00:49:30.634Z,0
2017-07-07T00:50:45.270Z,0
2017-07-07T00:51:30.696Z,0
2017-07-07T00:52:30.723Z,0
2017-07-07T00:53:30.727Z,0
2017-07-07T00:54:30.747Z,0
2017-07-07T00:55:30.758Z,0
2017-07-07T00:56:30.494Z,0
2017-07-07T00:57:44.782Z,0
2017-07-07T00:58:44.829Z,0
2017-07-07T00:59:30.875Z,0
2017-07-07T01:00:30.903Z,0
2017-07-07T01:01:45.188Z,0
2017-07-07T01:02:30.938Z,0
2017-07-07T01:04:30.660Z,0
2017-07-07T01:05:30.713Z,0
2017-07-07T01:06:30.737Z,0
2017-07-07T01:07:30.758Z,0
2017-07-07T01:08:59.649Z,0
2017-07-07T01:09:45.763Z,0
2017-07-07T01:10:31.157Z,0
2017-07-07T01:11:31.147Z,0
2017-07-07T01:12:31.195Z,0
2017-07-07T01:13:45.810Z,0
2017-07-07T01:14:45.516Z,0
2017-07-07T01:15:31.259Z,0
2017-07-07T01:16:31.303Z,0
2017-07-07T01:17:45.904Z,0
2017-07-07T01:18:31.368Z,0
2017-07-07T01:19:30.783Z,0
2017-07-07T01:20:45.987Z,0
2017-07-07T01:21:46.023Z,0
2017-07-07T01:22:30.803Z,0
2017-07-07T01:23:31.165Z,0
2017-07-07T01:24:30.537Z,0
2017-07-07T01:25:31.525Z,0
2017-07-07T01:26:31.513Z,0
2017-07-07T01:27:31.248Z,0
2017-07-07T01:28:31.560Z,0
2017-07-07T01:29:46.211Z,0
2017-07-07T01:30:31.325Z,0
2017-07-07T01:31:31.654Z,0
2017-07-07T01:32:31.346Z,0
2017-07-07T01:33:31.679Z,0
2017-07-07T01:34:31.097Z,0
2017-07-07T01:35:31.736Z,0
2017-07-07T01:36:31.791Z,0
2017-07-07T01:37:31.797Z,0
2017-07-07T01:38:46.117Z,0
2017-07-07T01:39:31.196Z,0
2017-07-07T01:40:31.560Z,0
2017-07-07T01:41:31.569Z,0
2017-07-07T01:42:46.533Z,0
2017-07-07T01:43:31.919Z,0
2017-07-07T01:44:31.336Z,0
2017-07-07T01:45:31.059Z,0
2017-07-07T01:46:32.028Z,0
2017-07-07T01:47:31.722Z,0
2017-07-07T01:48:46.357Z,0
2017-07-07T01:49:31.769Z,0
2017-07-07T01:50:46.713Z,0
2017-07-07T01:51:31.499Z,0
2017-07-07T01:52:31.860Z,0
2017-07-07T01:53:32.195Z,0
2017-07-07T01:54:32.213Z,0
2017-07-07T01:55:46.206Z,0
2017-07-07T01:56:32.240Z,0
2017-07-07T01:57:31.977Z,0
2017-07-07T01:58:46.903Z,0
2017-07-07T01:59:32.038Z,0
2017-07-07T02:00:32.371Z,0
2017-07-07T02:01:46.343Z,0
2017-07-07T02:02:32.093Z,0
2017-07-07T02:03:32.124Z,0
2017-07-07T02:04:32.147Z,0
2017-07-07T02:05:32.493Z,0
2017-07-07T02:06:31.891Z,0
2017-07-07T02:07:32.517Z,0
2017-07-07T02:08:32.566Z,0
2017-07-07T02:09:32.578Z,0
2017-07-07T02:10:47.206Z,0
2017-07-07T02:11:32.624Z,0
2017-07-07T02:12:32.647Z,0
2017-07-07T02:13:47.257Z,0
2017-07-07T02:14:32.716Z,0
2017-07-07T02:15:32.739Z,0
2017-07-07T02:16:32.445Z,0
2017-07-07T02:18:32.473Z,0
2017-07-07T02:19:47.419Z,0
2017-07-07T02:20:32.829Z,0
2017-07-07T02:21:47.474Z,0
2017-07-07T02:22:47.164Z,0
2017-07-07T02:23:47.213Z,0
2017-07-07T02:24:32.936Z,0
2017-07-07T02:25:32.653Z,0
2017-07-07T02:26:32.360Z,0
2017-07-07T02:27:32.706Z,0
2017-07-07T02:29:33.122Z,0
2017-07-07T02:30:47.669Z,0
2017-07-07T02:31:32.469Z,0
2017-07-07T02:32:32.815Z,0
2017-07-07T02:34:32.873Z,0
2017-07-07T02:35:33.210Z,0
2017-07-07T02:36:32.293Z,0
2017-07-07T02:37:32.933Z,0
2017-07-07T02:38:33.268Z,0
2017-07-07T02:39:47.599Z,0
2017-07-07T02:40:33.060Z,0
2017-07-07T02:41:47.619Z,0
2017-07-07T02:42:33.067Z,0
2017-07-07T02:43:33.392Z,0
2017-07-07T02:44:33.118Z,0
2017-07-07T02:45:33.124Z,0
2017-07-07T02:46:32.856Z,0
2017-07-07T02:47:47.443Z,0
2017-07-07T02:48:33.200Z,0
2017-07-07T02:50:02.433Z,0
2017-07-07T02:50:32.921Z,0
2017-07-07T02:51:33.610Z,0
2017-07-07T02:52:33.294Z,0
2017-07-07T02:53:33.336Z,0
2017-07-07T02:54:33.333Z,0
2017-07-07T02:55:33.047Z,0
2017-07-07T02:56:33.718Z,5
2017-07-07T02:57:32.803Z,5
2017-07-07T02:58:33.463Z,5
2017-07-07T03:00:48.408Z,5
2017-07-07T03:01:33.828Z,5
2017-07-07T03:02:33.867Z,5
2017-07-07T03:03:33.875Z,5
2017-07-07T03:05:03.110Z,5
2017-07-07T03:05:33.618Z,5
2017-07-07T03:08:34.037Z,5
2017-07-07T03:09:33.715Z,5
2017-07-07T03:10:34.058Z,10
2017-07-07T03:11:34.061Z,10
2017-07-07T03:12:34.095Z,10
2017-07-07T03:13:34.125Z,10
2017-07-07T03:14:48.764Z,10
2017-07-07T03:15:34.241Z,10
2017-07-07T03:16:48.476Z,10
2017-07-07T03:18:34.222Z,10
2017-07-07T03:19:33.948Z,10
2017-07-07T03:20:48.899Z,15
2017-07-07T03:21:34.313Z,15
2017-07-07T03:22:33.089Z,15
2017-07-07T03:23:34.105Z,15
2017-07-07T03:24:48.995Z,15
2017-07-07T03:25:33.789Z,15
2017-07-07T03:26:49.023Z,20
2017-07-07T03:27:34.148Z,20
2017-07-07T03:28:34.502Z,20
2017-07-07T03:29:34.528Z,20
2017-07-07T03:30:34.540Z,20
2017-07-07T03:31:49.162Z,20
2017-07-07T03:32:34.260Z,20
2017-07-07T03:33:34.620Z,25
2017-07-07T03:34:34.663Z,25
2017-07-07T03:35:34.655Z,30
2017-07-07T03:36:49.282Z,35
2017-07-07T03:37:34.080Z,35
2017-07-07T03:38:34.105Z,35
2017-07-07T03:39:34.461Z,40
2017-07-07T03:40:34.762Z,40
2017-07-07T03:42:34.815Z,45
2017-07-07T03:43:34.855Z,50
2017-07-07T03:44:34.865Z,50
2017-07-07T03:45:49.199Z,55
2017-07-07T03:46:49.533Z,55
2017-07-07T03:47:34.991Z,55
2017-07-07T03:48:34.968Z,55
2017-07-07T03:49:34.684Z,55
2017-07-07T03:50:35.045Z,55
2017-07-07T03:51:35.031Z,55
2017-07-07T03:52:49.673Z,55
2017-07-07T03:53:34.775Z,55
2017-07-07T03:54:35.127Z,55
2017-07-07T03:56:35.162Z,55
2017-07-07T03:57:35.204Z,50
2017-07-07T03:58:34.898Z,50
2017-07-07T03:59:35.242Z,45
2017-07-07T04:00:34.647Z,45
2017-07-07T04:01:34.964Z,40
2017-07-07T04:02:35.010Z,40
2017-07-07T04:03:35.073Z,40
2017-07-07T04:04:35.373Z,40
2017-07-07T04:05:35.368Z,40
2017-07-07T04:06:35.407Z,35
2017-07-07T04:07:35.429Z,35
2017-07-07T04:08:50.061Z,35
2017-07-07T04:09:35.505Z,35
2017-07-07T04:10:50.099Z,35
2017-07-07T04:11:35.555Z,35
2017-07-07T04:12:35.555Z,35
2017-07-07T04:13:35.586Z,35
2017-07-07T04:14:35.616Z,35
2017-07-07T04:15:35.616Z,35
2017-07-07T04:17:35.696Z,35
2017-07-07T04:18:35.702Z,35
2017-07-07T04:20:35.764Z,35
2017-07-07T04:21:35.784Z,35
2017-07-07T04:22:34.528Z,35
2017-07-07T04:23:35.506Z,35
2017-07-07T04:24:50.131Z,35
2017-07-07T04:25:35.577Z,35
2017-07-07T04:27:35.627Z,40
2017-07-07T04:28:35.640Z,40
2017-07-07T04:29:35.030Z,40
2017-07-07T04:30:35.674Z,40
2017-07-07T04:31:35.403Z,40
2017-07-07T04:32:50.641Z,40
2017-07-07T04:33:35.430Z,40
2017-07-07T04:34:35.781Z,40
2017-07-07T04:35:35.815Z,40
2017-07-07T04:36:36.167Z,40
2017-07-07T04:37:34.901Z,40
2017-07-07T04:38:35.877Z,40
2017-07-07T04:39:50.804Z,45
2017-07-07T04:40:50.530Z,45
2017-07-07T04:41:35.957Z,45
2017-07-07T04:42:35.667Z,45
2017-07-07T04:43:50.932Z,50
2017-07-07T04:44:36.336Z,50
2017-07-07T04:45:36.363Z,50
2017-07-07T04:47:36.099Z,50
2017-07-07T04:48:36.109Z,50
2017-07-07T04:49:36.482Z,50
2017-07-07T04:51:35.888Z,50
2017-07-07T04:52:36.538Z,45
2017-07-07T04:53:35.943Z,45
2017-07-07T04:54:36.629Z,45
2017-07-07T04:55:35.972Z,45
2017-07-07T04:56:36.640Z,40
2017-07-07T04:57:36.680Z,35
2017-07-07T04:58:36.681Z,35
2017-07-07T05:01:36.462Z,30
2017-07-07T05:02:51.062Z,25
2017-07-07T05:03:51.397Z,25
2017-07-07T05:04:36.850Z,25
2017-07-07T05:05:51.141Z,25
2017-07-07T05:06:36.914Z,25
2017-07-07T05:07:36.593Z,25
2017-07-07T05:08:36.931Z,25
2017-07-07T05:09:36.949Z,25
2017-07-07T05:10:36.982Z,25
2017-07-07T05:11:51.622Z,25
2017-07-07T05:12:37.027Z,25
2017-07-07T05:13:51.348Z,25
2017-07-07T05:15:36.788Z,25
2017-07-07T05:16:36.797Z,20
2017-07-07T05:17:37.130Z,20
2017-07-07T05:18:37.188Z,20
2017-07-07T05:19:51.805Z,20
2017-07-07T05:20:36.900Z,20
2017-07-07T05:21:37.310Z,20
2017-07-07T05:22:36.300Z,20
2017-07-07T05:23:36.988Z,15
2017-07-07T05:24:37.326Z,15
2017-07-07T05:25:36.726Z,15
2017-07-07T05:26:51.663Z,15
2017-07-07T05:27:51.682Z,15
2017-07-07T05:28:37.446Z,15
2017-07-07T05:29:37.437Z,10
2017-07-07T05:30:36.854Z,10
2017-07-07T05:31:36.856Z,10
2017-07-07T05:33:52.150Z,10
2017-07-07T05:34:37.236Z,10
2017-07-07T05:35:37.609Z,10
2017-07-07T05:36:37.633Z,10
2017-07-07T05:37:37.348Z,10
2017-07-07T05:38:37.654Z,10
2017-07-07T05:39:52.306Z,10
2017-07-07T05:40:37.695Z,10
2017-07-07T05:41:37.113Z,10
2017-07-07T05:42:51.419Z,10
2017-07-07T05:43:52.073Z,10
2017-07-07T05:44:37.839Z,10
2017-07-07T05:45:52.422Z,10
2017-07-07T05:46:37.882Z,10
2017-07-07T05:49:37.941Z,15
2017-07-07T05:51:07.164Z,15
2017-07-07T05:51:37.346Z,20
2017-07-07T05:52:37.690Z,20
2017-07-07T05:53:37.740Z,20
2017-07-07T05:54:38.070Z,25
2017-07-07T05:55:52.371Z,25
2017-07-07T05:56:37.783Z,30
2017-07-07T05:57:52.730Z,30
2017-07-07T05:58:37.822Z,30
2017-07-07T06:00:07.387Z,35
2017-07-07T06:00:37.985Z,35
2017-07-07T06:01:37.926Z,35
2017-07-07T06:02:37.916Z,35
2017-07-07T06:03:52.884Z,40
2017-07-07T06:04:38.292Z,40
2017-07-07T06:06:38.338Z,40
2017-07-07T06:07:38.691Z,35
2017-07-07T06:08:38.439Z,35
2017-07-07T06:09:38.492Z,35
2017-07-07T06:10:53.111Z,35
2017-07-07T06:11:53.052Z,30
2017-07-07T06:12:38.191Z,30
2017-07-07T06:13:38.206Z,30
2017-07-07T06:14:53.152Z,35
2017-07-07T06:15:38.286Z,35
2017-07-07T06:16:38.581Z,40
2017-07-07T06:17:37.986Z,40
2017-07-07T06:18:38.625Z,45
2017-07-07T06:19:53.253Z,45
2017-07-07T06:20:38.438Z,50
2017-07-07T06:21:38.715Z,50
2017-07-07T06:22:52.713Z,50
2017-07-07T06:23:37.807Z,45
2017-07-07T06:24:38.785Z,45
2017-07-07T06:25:38.797Z,45
2017-07-07T06:26:38.813Z,50
2017-07-07T06:28:38.563Z,50
2017-07-07T06:29:38.924Z,50
2017-07-07T06:30:39.212Z,50
2017-07-07T06:32:53.569Z,50
2017-07-07T06:33:53.598Z,50
2017-07-07T06:35:39.037Z,55
2017-07-07T06:36:52.725Z,55
2017-07-07T06:37:37.832Z,55
2017-07-07T06:38:37.862Z,55
2017-07-07T06:39:38.824Z,60
2017-07-07T06:40:39.228Z,60
2017-07-07T06:41:39.196Z,65
2017-07-07T06:42:39.240Z,65
2017-07-07T06:43:39.221Z,70
2017-07-07T06:44:38.947Z,75
2017-07-07T06:45:39.343Z,80
2017-07-07T06:46:53.930Z,80
2017-07-07T06:47:39.332Z,80
2017-07-07T06:48:39.059Z,85
2017-07-07T06:49:53.980Z,90
2017-07-07T06:50:54.046Z,90
2017-07-07T06:51:39.456Z,90
2017-07-07T06:52:39.148Z,85
2017-07-07T06:53:39.496Z,80
2017-07-07T06:54:38.857Z,75
2017-07-07T06:55:54.119Z,70
2017-07-07T06:56:39.597Z,60
2017-07-07T06:57:39.593Z,55
2017-07-07T06:58:54.213Z,55
2017-07-07T06:59:39.655Z,50
2017-07-07T07:00:39.032Z,50
2017-07-07T07:01:39.669Z,55
2017-07-07T07:02:54.316Z,50
2017-07-07T07:03:54.013Z,50
2017-07-07T07:04:54.040Z,50
2017-07-07T07:05:39.769Z,45
2017-07-07T07:06:39.824Z,45
2017-07-07T07:07:39.839Z,40
2017-07-07T07:08:39.849Z,35
2017-07-07T07:09:39.568Z,35
2017-07-07T07:10:39.596Z,30
2017-07-07T07:11:39.905Z,30
2017-07-07T07:12:39.964Z,25
2017-07-07T07:13:40.022Z,25
2017-07-07T07:14:40.056Z,25
2017-07-07T07:15:39.696Z,25
2017-07-07T07:16:40.075Z,25
2017-07-07T07:17:54.682Z,25
2017-07-07T07:19:09.287Z,25
2017-07-07T07:19:54.406Z,25
2017-07-07T07:20:39.874Z,25
2017-07-07T07:21:39.542Z,25
2017-07-07T07:22:39.551Z,25
2017-07-07T07:23:39.923Z,30
2017-07-07T07:24:54.534Z,30
2017-07-07T07:25:39.945Z,30
2017-07-07T07:26:40.290Z,35
2017-07-07T07:27:39.719Z,35
2017-07-07T07:28:40.051Z,35
2017-07-07T07:29:40.363Z,35
2017-07-07T07:30:55.203Z,35
2017-07-07T07:31:54.383Z,35
2017-07-07T07:32:40.184Z,35
2017-07-07T07:33:39.972Z,35
2017-07-07T07:34:55.087Z,35
2017-07-07T07:35:40.207Z,35
2017-07-07T07:36:39.900Z,35
2017-07-07T07:37:55.262Z,35
2017-07-07T07:38:40.578Z,30
2017-07-07T07:39:40.264Z,30
2017-07-07T07:40:40.656Z,30
2017-07-07T07:41:40.355Z,30
2017-07-07T07:42:40.418Z,30
2017-07-07T07:43:39.905Z,30
2017-07-07T07:44:54.991Z,30
2017-07-07T07:45:40.448Z,30
2017-07-07T07:46:40.452Z,30
2017-07-07T07:47:40.488Z,30
2017-07-07T07:48:55.099Z,30
2017-07-07T07:49:55.460Z,35
2017-07-07T07:50:55.145Z,40
2017-07-07T07:51:40.575Z,40
2017-07-07T07:52:40.624Z,45
2017-07-07T07:53:55.221Z,55
2017-07-07T07:54:55.581Z,55
2017-07-07T07:56:40.754Z,50
2017-07-07T07:57:40.733Z,45
2017-07-07T07:58:41.047Z,40
2017-07-07T07:59:55.701Z,35
2017-07-07T08:00:41.227Z,35
2017-07-07T08:01:41.154Z,35
2017-07-07T08:02:40.217Z,35
2017-07-07T08:04:40.582Z,35
2017-07-07T08:06:40.613Z,35
2017-07-07T08:07:41.306Z,30
2017-07-07T08:08:40.998Z,30
2017-07-07T08:09:40.400Z,30
2017-07-07T08:10:40.770Z,30
2017-07-07T08:11:41.107Z,35
2017-07-07T08:12:41.093Z,35
2017-07-07T08:13:41.184Z,35
2017-07-07T08:14:40.821Z,35
2017-07-07T08:16:41.203Z,30
2017-07-07T08:17:40.918Z,30
2017-07-07T08:18:55.854Z,30
2017-07-07T08:19:40.636Z,30
2017-07-07T08:20:40.987Z,30
2017-07-07T08:21:56.220Z,30
2017-07-07T08:22:41.689Z,30
2017-07-07T08:23:41.768Z,30
2017-07-07T08:24:40.451Z,30
2017-07-07T08:25:41.752Z,30
2017-07-07T08:26:56.126Z,30
2017-07-07T08:27:55.532Z,35
2017-07-07T08:28:41.484Z,35
2017-07-07T08:29:42.039Z,35
2017-07-07T08:30:41.537Z,40
2017-07-07T08:31:41.265Z,45
2017-07-07T08:32:40.955Z,45
2017-07-07T08:33:56.528Z,50
2017-07-07T08:35:41.352Z,60
2017-07-07T08:37:56.323Z,65
2017-07-07T08:38:41.730Z,65
2017-07-07T08:39:56.763Z,70
2017-07-07T08:40:42.120Z,75
2017-07-07T08:42:41.844Z,75
2017-07-07T08:43:42.266Z,80
2017-07-07T08:44:42.203Z,80
2017-07-07T08:45:42.210Z,75
2017-07-07T08:46:42.245Z,75
2017-07-07T08:47:56.878Z,70
2017-07-07T08:48:41.675Z,70
2017-07-07T08:49:42.018Z,70
2017-07-07T08:50:42.444Z,70
2017-07-07T08:51:42.396Z,75
2017-07-07T08:52:42.389Z,75
2017-07-07T08:53:56.719Z,70
2017-07-07T08:54:57.094Z,70
2017-07-07T08:55:41.854Z,70
2017-07-07T08:56:42.200Z,70
2017-07-07T08:57:42.731Z,70
2017-07-07T08:58:42.557Z,70
2017-07-07T08:59:57.177Z,65
2017-07-07T09:00:42.056Z,65
2017-07-07T09:01:42.355Z,60
2017-07-07T09:02:42.332Z,60
2017-07-07T09:03:42.896Z,60
2017-07-07T09:05:41.783Z,60
2017-07-07T09:06:42.135Z,55
2017-07-07T09:07:42.812Z,55
2017-07-07T09:08:42.801Z,60
2017-07-07T09:10:12.012Z,60
2017-07-07T09:10:42.529Z,60
2017-07-07T09:11:57.459Z,60
2017-07-07T09:12:56.858Z,55
2017-07-07T09:13:42.927Z,60
2017-07-07T09:14:42.313Z,60
2017-07-07T09:15:57.254Z,60
2017-07-07T09:16:42.662Z,60
2017-07-07T09:17:57.354Z,60
2017-07-07T09:18:42.733Z,60
2017-07-07T09:19:42.552Z,60
2017-07-07T09:21:43.116Z,60
2017-07-07T09:22:42.823Z,65
2017-07-07T09:23:43.260Z,70
2017-07-07T09:25:12.385Z,75
2017-07-07T09:25:43.226Z,75
2017-07-07T09:26:43.302Z,75
2017-07-07T09:27:42.950Z,80
2017-07-07T09:30:42.728Z,95
2017-07-07T09:31:43.383Z,100
2017-07-07T09:32:43.389Z,110
2017-07-07T09:33:43.099Z,120
2017-07-07T09:34:43.116Z,125
2017-07-07T09:35:57.758Z,130
2017-07-07T09:36:43.486Z,130
2017-07-07T09:37:43.524Z,135
2017-07-07T09:38:43.226Z,135
2017-07-07T09:39:43.056Z,140
2017-07-07T09:40:57.859Z,145
2017-07-07T09:41:43.624Z,150
2017-07-07T09:42:58.234Z,150
2017-07-07T09:43:43.374Z,150
2017-07-07T09:44:58.285Z,150
2017-07-07T09:45:43.718Z,155
2017-07-07T09:46:43.429Z,160
2017-07-07T09:47:43.474Z,165
2017-07-07T09:48:43.923Z,170
2017-07-07T09:49:43.834Z,180
2017-07-07T09:50:43.503Z,190
2017-07-07T09:52:44.196Z,210
2017-07-07T09:53:58.512Z,225
2017-07-07T09:54:43.942Z,235
2017-07-07T09:55:43.874Z,245
2017-07-07T09:56:58.265Z,265
2017-07-07T09:58:43.745Z,280
2017-07-07T09:59:58.669Z,275
2017-07-07T10:00:43.784Z,270
2017-07-07T10:01:58.407Z,270
2017-07-07T10:02:44.142Z,265
2017-07-07T10:03:43.864Z,260
2017-07-07T10:05:44.441Z,255
2017-07-07T10:06:58.840Z,250
2017-07-07T10:07:44.302Z,245
2017-07-07T10:08:43.960Z,245
2017-07-07T10:09:44.340Z,240
2017-07-07T10:10:44.020Z,240
2017-07-07T10:11:44.396Z,235
2017-07-07T10:12:58.707Z,235
2017-07-07T10:13:44.443Z,235
2017-07-07T10:14:44.147Z,230
2017-07-07T10:15:44.487Z,225
2017-07-07T10:16:44.578Z,220
2017-07-07T10:17:44.546Z,210
2017-07-07T10:18:44.843Z,200
2017-07-07T10:19:43.643Z,195
2017-07-07T10:21:58.929Z,195
2017-07-07T10:22:44.370Z,200
2017-07-07T10:23:58.974Z,235
2017-07-07T10:24:58.691Z,235
2017-07-07T10:25:44.106Z,245
2017-07-07T10:26:44.483Z,285
2017-07-07T10:27:59.412Z,300
2017-07-07T10:29:13.727Z,375
2017-07-07T10:30:44.884Z,375
2017-07-07T10:31:44.713Z,365
2017-07-07T10:32:44.617Z,345
2017-07-07T10:33:44.654Z,330
2017-07-07T10:34:59.608Z,310
2017-07-07T10:35:45.019Z,300
2017-07-07T10:36:59.074Z,285
2017-07-07T10:37:45.129Z,280
2017-07-07T10:38:45.119Z,275
2017-07-07T10:39:45.133Z,270
2017-07-07T10:40:45.157Z,265
2017-07-07T10:41:44.563Z,265
2017-07-07T10:44:59.866Z,255
2017-07-07T10:45:44.509Z,250
2017-07-07T10:46:45.350Z,250
2017-07-07T10:47:45.057Z,250
2017-07-07T10:48:45.113Z,250
2017-07-07T10:49:45.438Z,245
2017-07-07T10:50:59.729Z,240
2017-07-07T10:51:45.479Z,240
2017-07-07T10:52:45.501Z,240
2017-07-07T10:53:45.557Z,240
2017-07-07T10:54:45.600Z,245
2017-07-07T10:55:45.281Z,240
2017-07-07T10:56:45.289Z,235
2017-07-07T10:57:45.074Z,235
2017-07-07T10:58:45.663Z,235
2017-07-07T11:00:14.916Z,230
2017-07-07T11:01:00.651Z,230
2017-07-07T11:02:00.098Z,230
2017-07-07T11:02:45.810Z,230
2017-07-07T11:03:45.592Z,230
2017-07-07T11:04:45.257Z,230
2017-07-07T11:05:45.553Z,225
2017-07-07T11:06:45.603Z,225
2017-07-07T11:08:00.216Z,225
2017-07-07T11:08:45.319Z,225
2017-07-07T11:09:46.040Z,220
2017-07-07T11:10:46.013Z,220
2017-07-07T11:11:46.061Z,220
2017-07-07T11:12:45.752Z,220
2017-07-07T11:13:46.168Z,220
2017-07-07T11:15:46.008Z,220
2017-07-07T11:16:46.183Z,220
2017-07-07T11:18:46.260Z,215
2017-07-07T11:19:46.533Z,215
2017-07-07T11:20:46.304Z,215
2017-07-07T11:21:46.079Z,220
2017-07-07T11:22:46.289Z,210
2017-07-07T11:23:46.398Z,210
2017-07-07T11:26:01.095Z,210
2017-07-07T11:27:46.539Z,205
2017-07-07T11:28:46.330Z,205
2017-07-07T11:29:46.552Z,200
2017-07-07T11:32:00.953Z,200
2017-07-07T11:32:46.791Z,200
2017-07-07T11:33:46.704Z,200
2017-07-07T11:34:46.398Z,200
2017-07-07T11:36:01.311Z,200
2017-07-07T11:37:46.461Z,195
2017-07-07T11:39:01.198Z,195
2017-07-07T11:39:46.941Z,195
2017-07-07T11:40:46.569Z,190
2017-07-07T11:41:46.928Z,190
2017-07-07T11:42:46.749Z,190
2017-07-07T11:43:46.718Z,185
2017-07-07T11:44:46.996Z,185
2017-07-07T11:45:47.099Z,180
2017-07-07T11:48:01.660Z,180
2017-07-07T11:48:47.294Z,180
2017-07-07T11:49:46.796Z,180
2017-07-07T11:50:47.166Z,175
2017-07-07T11:51:46.876Z,175
2017-07-07T11:52:47.219Z,175
2017-07-07T11:53:46.610Z,170
2017-07-07T11:55:47.138Z,170
2017-07-07T11:58:01.980Z,165
2017-07-07T11:58:47.073Z,165
2017-07-07T11:59:47.511Z,165
2017-07-07T12:00:47.444Z,165
2017-07-07T12:01:47.144Z,165
2017-07-07T12:02:47.764Z,170
2017-07-07T12:04:46.930Z,170
2017-07-07T12:05:47.328Z,170
2017-07-07T12:06:47.330Z,170
2017-07-07T12:08:01.928Z,170
2017-07-07T12:08:46.706Z,170
2017-07-07T12:10:01.996Z,170
2017-07-07T12:10:47.398Z,170
2017-07-07T12:11:47.454Z,180
2017-07-07T12:12:47.678Z,175
2017-07-07T12:13:47.794Z,180
2017-07-07T12:15:02.127Z,180
2017-07-07T12:15:47.597Z,180
2017-07-07T12:16:47.575Z,180
2017-07-07T12:17:46.983Z,190
2017-07-07T12:18:47.513Z,185
2017-07-07T12:20:02.277Z,185
2017-07-07T12:20:47.691Z,185
2017-07-07T12:21:47.740Z,190
2017-07-07T12:24:02.370Z,190
2017-07-07T12:25:02.121Z,190
2017-07-07T12:25:47.922Z,190
2017-07-07T12:26:47.872Z,190
2017-07-07T12:28:02.488Z,190
2017-07-07T12:28:48.292Z,190
2017-07-07T12:29:47.657Z,195
2017-07-07T12:35:03.040Z,190
2017-07-07T12:35:48.121Z,205
2017-07-07T12:36:48.490Z,205
2017-07-07T12:37:48.525Z,210
2017-07-07T12:39:02.179Z,210
2017-07-07T12:39:48.254Z,220
2017-07-07T12:40:48.584Z,190
2017-07-07T12:41:48.330Z,150
2017-07-07T12:42:48.337Z,210
2017-07-07T12:44:03.258Z,160
2017-07-07T12:44:48.490Z,220
2017-07-07T12:45:48.422Z,225
2017-07-07T12:46:48.471Z,175
2017-07-07T12:47:48.951Z,180
2017-07-07T12:49:03.117Z,180
2017-07-07T12:49:48.830Z,160
2017-07-07T12:50:48.847Z,220
2017-07-07T12:51:48.916Z,220
2017-07-07T12:52:48.634Z,215
2017-07-07T12:54:03.317Z,215
2017-07-07T12:54:48.992Z,210
2017-07-07T12:55:48.407Z,205
2017-07-07T12:56:48.241Z,200
2017-07-07T12:57:49.096Z,200
2017-07-07T12:58:49.100Z,200
2017-07-07T12:59:48.838Z,195
2017-07-07T13:00:49.282Z,195
2017-07-07T13:01:48.883Z,190
2017-07-07T13:02:48.598Z,190
2017-07-07T13:03:49.032Z,185
2017-07-07T13:04:48.989Z,190
2017-07-07T13:05:49.014Z,190
2017-07-07T13:07:04.098Z,190
2017-07-07T13:09:03.695Z,180
2017-07-07T13:09:49.162Z,185
2017-07-07T13:11:03.752Z,185
2017-07-07T13:11:49.493Z,185
2017-07-07T13:12:49.212Z,190
2017-07-07T13:13:49.263Z,190
2017-07-07T13:14:49.263Z,170
2017-07-07T13:15:49.282Z,195
2017-07-07T13:16:49.599Z,190
2017-07-07T13:17:49.350Z,185
2017-07-07T13:18:49.687Z,160
2017-07-07T13:19:49.121Z,185
2017-07-07T13:20:49.511Z,185
2017-07-07T13:21:49.135Z,190
2017-07-07T13:23:03.466Z,195
2017-07-07T13:24:04.264Z,190
2017-07-07T13:24:49.240Z,190
2017-07-07T13:25:49.262Z,190
2017-07-07T13:27:04.590Z,185
2017-07-07T13:27:50.025Z,190
2017-07-07T13:28:49.991Z,190
2017-07-07T13:29:49.694Z,185
2017-07-07T13:31:04.643Z,170
2017-07-07T13:31:50.088Z,135
2017-07-07T13:33:04.701Z,190
2017-07-07T13:33:49.828Z,175
2017-07-07T13:34:50.620Z,165
2017-07-07T13:35:50.197Z,140
2017-07-07T13:36:49.913Z,145
2017-07-07T13:37:50.269Z,190
2017-07-07T13:39:04.886Z,190
2017-07-07T13:39:50.010Z,195
2017-07-07T13:40:50.019Z,190
2017-07-07T13:41:49.752Z,140
2017-07-07T13:43:49.804Z,190
2017-07-07T13:44:50.731Z,125
2017-07-07T13:45:50.172Z,125
2017-07-07T13:46:50.582Z,180
2017-07-07T13:47:50.537Z,195
2017-07-07T13:49:05.195Z,200
2017-07-07T13:49:50.585Z,155
2017-07-07T13:50:50.484Z,145
2017-07-07T13:52:04.944Z,140
2017-07-07T13:52:50.685Z,125
2017-07-07T13:53:50.723Z,120
2017-07-07T13:55:05.028Z,125
2017-07-07T13:56:05.182Z,195
2017-07-07T13:57:50.532Z,185
2017-07-07T13:58:50.559Z,170
2017-07-07T13:59:50.580Z,190
2017-07-07T14:00:51.186Z,200
2017-07-07T14:01:50.970Z,155
2017-07-07T14:03:05.283Z,120
2017-07-07T14:04:05.306Z,120
2017-07-07T14:05:05.009Z,120
2017-07-07T14:06:05.409Z,120
2017-07-07T14:06:51.126Z,120
2017-07-07T14:07:50.809Z,120
2017-07-07T14:09:05.777Z,125
2017-07-07T14:10:05.570Z,130
2017-07-07T14:10:51.529Z,180
2017-07-07T14:11:51.233Z,150
2017-07-07T14:12:51.284Z,135
2017-07-07T14:13:51.309Z,150
2017-07-07T14:14:51.347Z,195
2017-07-07T14:15:51.505Z,170
2017-07-07T14:17:05.984Z,180
2017-07-07T14:17:51.434Z,195
2017-07-07T14:18:51.441Z,180
2017-07-07T14:19:51.175Z,120
2017-07-07T14:21:06.114Z,115
2017-07-07T14:21:51.563Z,125
2017-07-07T14:22:50.626Z,120
2017-07-07T14:24:51.313Z,120
2017-07-07T14:25:51.017Z,110
2017-07-07T14:26:51.393Z,105
2017-07-07T14:27:51.412Z,115
2017-07-07T14:29:06.363Z,130
2017-07-07T14:29:51.783Z,125
2017-07-07T14:30:51.994Z,120
2017-07-07T14:32:06.183Z,120
2017-07-07T14:32:51.884Z,165
2017-07-07T14:33:51.255Z,125
2017-07-07T14:35:06.211Z,165
2017-07-07T14:35:51.933Z,165
2017-07-07T14:36:51.674Z,160
2017-07-07T14:37:51.393Z,160
2017-07-07T14:38:51.108Z,170
2017-07-07T14:39:52.079Z,165
2017-07-07T14:40:52.053Z,170
2017-07-07T14:42:06.404Z,165
2017-07-07T14:44:06.799Z,190
2017-07-07T14:45:06.563Z,185
2017-07-07T14:45:52.254Z,185
2017-07-07T14:46:52.276Z,185
2017-07-07T14:48:06.276Z,190
2017-07-07T14:48:52.020Z,185
2017-07-07T14:50:51.765Z,170
2017-07-07T14:52:06.395Z,150
2017-07-07T14:52:52.448Z,125
2017-07-07T14:54:06.778Z,140
2017-07-07T14:54:52.191Z,135
2017-07-07T14:55:52.230Z,130
2017-07-07T14:57:07.155Z,115
2017-07-07T14:58:06.564Z,115
2017-07-07T14:58:52.317Z,130
2017-07-07T14:59:52.716Z,130
2017-07-07T15:01:06.949Z,130
2017-07-07T15:02:07.326Z,145
2017-07-07T15:02:52.427Z,145
2017-07-07T15:03:52.782Z,155
2017-07-07T15:04:52.503Z,150
2017-07-07T15:05:52.518Z,160
2017-07-07T15:06:52.541Z,155
2017-07-07T15:07:52.570Z,160
2017-07-07T15:08:52.931Z,165
2017-07-07T15:10:52.689Z,195
2017-07-07T15:11:52.378Z,200
2017-07-07T15:12:53.051Z,190
2017-07-07T15:14:07.354Z,195
2017-07-07T15:14:53.141Z,165
2017-07-07T15:15:52.497Z,135
2017-07-07T15:17:52.890Z,110
2017-07-07T15:18:52.896Z,100
2017-07-07T15:19:52.555Z,85